Time,TemperatureF,DewpointF,PressureIn,WindDirection,WindDirectionDegrees,WindSpeedMPH,WindSpeedGustMPH,Humidity,HourlyPrecipIn,Conditions,Clouds,dailyrainin,SoftwareType,DateUTC
2013-09-24 00:02:00,71.5,69.7,29.91,SSE,158,0.0,0.0,94,0.00,,---,0.00,VWS V14.01,2013-09-24 05:02:00,
2013-09-24 00:07:00,71.5,69.7,29.91,SSE,158,0.0,0.0,94,0.00,,---,0.00,VWS V14.01,2013-09-24 05:07:00,
2013-09-24 00:12:00,71.5,69.7,29.88,SSE,158,0.0,0.0,94,0.00,,---,0.00,VWS V14.01,2013-09-24 05:12:00,
2013-09-24 00:17:00,71.5,69.7,29.88,SSE,158,0.0,0.0,94,0.00,,---,0.00,VWS V14.01,2013-09-24 05:17:00,
2013-09-24 00:22:00,71.5,69.7,29.88,SSE,158,0.0,0.0,94,0.00,,---,0.00,VWS V14.01,2013-09-24 05:22:00,
2013-09-24 00:27:00,71.5,69.7,29.88,ESE,112,0.0,0.0,94,0.00,,---,0.00,VWS V14.01,2013-09-24 05:27:00,
2013-09-24 00:32:00,71.5,69.7,29.88,ESE,112,0.0,0.0,94,0.00,,---,0.00,VWS V14.01,2013-09-24 05:32:00,
2013-09-24 00:37:00,71.5,70.0,29.88,ESE,112,0.0,0.0,95,0.00,,---,0.00,VWS V14.01,2013-09-24 05:37:00,
2013-09-24 00:42:00,71.3,69.8,29.88,ESE,112,0.0,0.0,95,0.00,,---,0.00,VWS V14.01,2013-09-24 05:42:00,
2013-09-24 00:47:00,71.3,69.8,29.88,ESE,112,0.0,0.0,95,0.00,,---,0.00,VWS V14.01,2013-09-24 05:47:00,
2013-09-24 00:52:00,71.3,69.8,29.88,ESE,112,0.0,0.0,95,0.00,,---,0.00,VWS V14.01,2013-09-24 05:52:00,
2013-09-24 00:57:00,71.3,69.8,29.88,ESE,112,0.0,0.0,95,0.00,,---,0.00,VWS V14.01,2013-09-24 05:57:00,
2013-09-24 01:02:00,71.3,69.8,29.88,ESE,112,0.0,0.0,95,0.00,,---,0.00,VWS V14.01,2013-09-24 06:02:00,
2013-09-24 01:07:00,71.3,69.8,29.88,ESE,112,0.0,0.0,95,0.00,,---,0.00,VWS V14.01,2013-09-24 06:07:00,
2013-09-24 01:12:00,71.3,69.8,29.88,ESE,112,0.0,0.0,95,0.00,,---,0.00,VWS V14.01,2013-09-24 06:12:00,
2013-09-24 01:17:00,71.3,69.8,29.88,ESE,112,0.0,0.0,95,0.00,,---,0.00,VWS V14.01,2013-09-24 06:17:00,
2013-09-24 01:22:00,71.3,69.8,29.88,ESE,112,0.0,0.0,95,0.00,,---,0.00,VWS V14.01,2013-09-24 06:22:00,
2013-09-24 01:27:00,71.3,69.8,29.88,ESE,112,0.0,0.0,95,0.00,,---,0.00,VWS V14.01,2013-09-24 06:27:00,
2013-09-24 01:32:00,71.2,69.7,29.88,ESE,112,0.0,0.0,95,0.00,,---,0.00,VWS V14.01,2013-09-24 06:32:00,
2013-09-24 01:37:00,71.2,69.7,29.88,ESE,112,0.0,0.0,95,0.00,,---,0.00,VWS V14.01,2013-09-24 06:37:00,
2013-09-24 01:42:00,71.2,69.7,29.88,ESE,112,0.0,0.0,95,0.00,,---,0.00,VWS V14.01,2013-09-24 06:42:00,
2013-09-24 01:47:00,71.2,69.7,29.88,ESE,112,0.0,0.0,95,0.00,,---,0.00,VWS V14.01,2013-09-24 06:47:00,
2013-09-24 01:52:00,71.2,69.7,29.88,ESE,112,0.0,0.0,95,0.00,,---,0.00,VWS V14.01,2013-09-24 06:52:00,
2013-09-24 01:57:00,71.2,69.7,29.88,ESE,112,0.0,0.0,95,0.00,,---,0.00,VWS V14.01,2013-09-24 06:57:00,
2013-09-24 02:02:00,71.2,69.7,29.88,ESE,112,0.0,0.0,95,0.00,,---,0.00,VWS V14.01,2013-09-24 07:02:00,
2013-09-24 02:07:00,71.2,69.7,29.88,ESE,112,0.0,0.0,95,0.00,,---,0.00,VWS V14.01,2013-09-24 07:07:00,
2013-09-24 02:12:00,71.2,69.7,29.88,ESE,112,0.0,0.0,95,0.00,,---,0.00,VWS V14.01,2013-09-24 07:12:00,
2013-09-24 02:17:00,71.2,70.0,29.88,ESE,112,0.0,0.0,96,0.00,,---,0.00,VWS V14.01,2013-09-24 07:17:00,
2013-09-24 02:22:00,71.2,70.0,29.88,ESE,112,0.0,0.0,96,0.00,,---,0.00,VWS V14.01,2013-09-24 07:22:00,
2013-09-24 02:27:00,71.2,70.0,29.88,ESE,112,0.0,0.0,96,0.00,,---,0.00,VWS V14.01,2013-09-24 07:27:00,
2013-09-24 02:32:00,71.3,70.1,29.88,ESE,112,0.0,0.0,96,0.00,,---,0.00,VWS V14.01,2013-09-24 07:32:00,
2013-09-24 02:37:00,71.3,70.1,29.88,ESE,112,0.0,0.0,96,0.00,,---,0.00,VWS V14.01,2013-09-24 07:37:00,
2013-09-24 02:42:00,71.3,70.1,29.88,ESE,112,0.0,0.0,96,0.00,,---,0.00,VWS V14.01,2013-09-24 07:42:00,
2013-09-24 02:47:00,71.3,70.1,29.88,ESE,112,0.0,0.0,96,0.00,,---,0.00,VWS V14.01,2013-09-24 07:47:00,
2013-09-24 02:52:00,71.3,70.1,29.88,ESE,112,0.0,0.0,96,0.00,,---,0.00,VWS V14.01,2013-09-24 07:52:00,
2013-09-24 02:57:00,71.5,70.3,29.88,ESE,112,0.0,0.0,96,0.00,,---,0.00,VWS V14.01,2013-09-24 07:57:00,
2013-09-24 03:02:00,71.5,70.3,29.88,ESE,112,0.0,0.0,96,0.00,,---,0.00,VWS V14.01,2013-09-24 08:02:00,
2013-09-24 03:07:00,71.7,70.5,29.88,ESE,112,0.0,0.0,96,0.00,,---,0.00,VWS V14.01,2013-09-24 08:07:00,
2013-09-24 03:12:00,71.7,70.5,29.88,ESE,112,0.0,0.0,96,0.00,,---,0.00,VWS V14.01,2013-09-24 08:12:00,
2013-09-24 03:18:00,71.7,70.5,29.88,ESE,112,0.0,0.0,96,0.00,,---,0.00,VWS V14.01,2013-09-24 08:18:00,
2013-09-24 03:23:00,71.9,70.7,29.88,ESE,112,0.0,0.0,96,0.00,,---,0.00,VWS V14.01,2013-09-24 08:23:00,
2013-09-24 03:28:00,71.9,70.7,29.88,ESE,112,0.0,0.0,96,0.00,,---,0.00,VWS V14.01,2013-09-24 08:28:00,
2013-09-24 03:33:00,71.9,70.7,29.88,ESE,112,0.0,0.0,96,0.00,,---,0.00,VWS V14.01,2013-09-24 08:33:00,
2013-09-24 03:38:00,71.9,70.7,29.88,SE,135,0.0,0.0,96,0.00,,---,0.00,VWS V14.01,2013-09-24 08:38:00,
2013-09-24 03:43:00,72.1,70.9,29.88,ESE,112,0.0,0.0,96,0.00,,---,0.00,VWS V14.01,2013-09-24 08:43:00,
2013-09-24 03:48:00,72.1,71.2,29.88,SE,135,0.0,0.0,97,0.00,,---,0.00,VWS V14.01,2013-09-24 08:48:00,
2013-09-24 03:53:00,72.1,71.2,29.88,SE,135,0.0,0.0,97,0.00,,---,0.00,VWS V14.01,2013-09-24 08:53:00,
2013-09-24 03:58:00,72.1,71.2,29.88,SE,135,0.0,0.0,97,0.00,,---,0.00,VWS V14.01,2013-09-24 08:58:00,
2013-09-24 04:03:00,72.2,71.3,29.88,ESE,112,0.0,0.0,97,0.00,,---,0.00,VWS V14.01,2013-09-24 09:03:00,
2013-09-24 04:08:00,72.2,71.3,29.88,ESE,112,0.0,1.1,97,0.00,,---,0.00,VWS V14.01,2013-09-24 09:08:00,
2013-09-24 04:13:00,72.2,71.3,29.88,ESE,112,0.0,0.0,97,0.00,,---,0.00,VWS V14.01,2013-09-24 09:13:00,
2013-09-24 04:18:00,72.4,71.5,29.88,ESE,112,0.0,0.0,97,0.00,,---,0.00,VWS V14.01,2013-09-24 09:18:00,
2013-09-24 04:23:00,72.4,71.5,29.88,ESE,112,0.0,0.0,97,0.00,,---,0.00,VWS V14.01,2013-09-24 09:23:00,
2013-09-24 04:28:00,72.4,71.5,29.88,ESE,112,0.0,0.0,97,0.00,,---,0.00,VWS V14.01,2013-09-24 09:28:00,
2013-09-24 04:33:00,72.6,71.7,29.88,ESE,112,0.0,0.0,97,0.00,,---,0.00,VWS V14.01,2013-09-24 09:33:00,
2013-09-24 04:38:00,72.6,71.7,29.88,ENE,68,0.0,0.0,97,0.00,,---,0.00,VWS V14.01,2013-09-24 09:38:00,
2013-09-24 04:43:00,72.6,71.7,29.88,SSE,158,0.0,0.0,97,0.00,,---,0.00,VWS V14.01,2013-09-24 09:43:00,
2013-09-24 04:48:00,72.8,71.9,29.88,SE,135,0.0,0.0,97,0.00,,---,0.00,VWS V14.01,2013-09-24 09:48:00,
2013-09-24 04:53:00,72.8,71.9,29.88,SE,135,0.0,0.0,97,0.00,,---,0.00,VWS V14.01,2013-09-24 09:53:00,
2013-09-24 04:58:00,72.8,71.9,29.88,NE,45,0.0,0.0,97,0.00,,---,0.00,VWS V14.01,2013-09-24 09:58:00,
2013-09-24 05:03:00,73.0,72.1,29.88,ENE,68,0.0,0.0,97,0.00,,---,0.00,VWS V14.01,2013-09-24 10:03:00,
2013-09-24 05:08:00,73.0,72.1,29.88,ENE,68,0.0,0.0,97,0.00,,---,0.00,VWS V14.01,2013-09-24 10:08:00,
2013-09-24 05:13:00,73.0,72.1,29.88,ENE,68,0.0,0.0,97,0.00,,---,0.00,VWS V14.01,2013-09-24 10:13:00,
2013-09-24 05:18:00,73.0,72.1,29.88,ENE,68,0.0,0.0,97,0.00,,---,0.00,VWS V14.01,2013-09-24 10:18:00,
2013-09-24 05:23:00,73.0,72.1,29.88,ENE,68,0.0,0.0,97,0.00,,---,0.00,VWS V14.01,2013-09-24 10:23:00,
2013-09-24 05:28:00,73.1,72.2,29.88,ENE,68,0.0,0.0,97,0.00,,---,0.00,VWS V14.01,2013-09-24 10:28:00,
2013-09-24 05:33:00,73.1,72.2,29.88,ENE,68,0.0,0.0,97,0.00,,---,0.00,VWS V14.01,2013-09-24 10:33:00,
2013-09-24 05:38:00,73.1,72.2,29.88,ENE,68,0.0,0.0,97,0.00,,---,0.00,VWS V14.01,2013-09-24 10:38:00,
2013-09-24 05:43:00,73.1,72.2,29.88,ENE,68,0.0,0.0,97,0.00,,---,0.00,VWS V14.01,2013-09-24 10:43:00,
2013-09-24 05:48:00,73.1,72.2,29.88,North,0,0.0,0.0,97,0.00,,---,0.00,VWS V14.01,2013-09-24 10:48:00,
2013-09-24 05:53:00,73.1,72.2,29.88,NW,315,0.0,0.0,97,0.00,,---,0.00,VWS V14.01,2013-09-24 10:53:00,
2013-09-24 05:58:00,73.3,72.4,29.88,North,0,0.0,0.0,97,0.00,,---,0.00,VWS V14.01,2013-09-24 10:58:00,
2013-09-24 06:03:00,73.3,72.4,29.88,North,0,0.0,0.0,97,0.00,,---,0.00,VWS V14.01,2013-09-24 11:03:00,
2013-09-24 06:08:00,73.3,72.4,29.88,ESE,112,0.0,0.0,97,0.00,,---,0.00,VWS V14.01,2013-09-24 11:08:00,
2013-09-24 06:13:00,73.3,72.4,29.88,SSE,158,0.0,0.0,97,0.00,,---,0.00,VWS V14.01,2013-09-24 11:13:00,
2013-09-24 06:18:00,73.5,72.6,29.88,SSE,158,0.0,0.0,97,0.00,,---,0.00,VWS V14.01,2013-09-24 11:18:00,
2013-09-24 06:23:00,73.5,72.6,29.88,SSE,158,0.0,0.0,97,0.00,,---,0.00,VWS V14.01,2013-09-24 11:23:00,
2013-09-24 06:28:00,73.5,72.6,29.88,SSE,158,0.0,0.0,97,0.00,,---,0.00,VWS V14.01,2013-09-24 11:28:00,
2013-09-24 06:33:00,73.3,72.4,29.88,ESE,112,0.0,0.0,97,0.00,,---,0.00,VWS V14.01,2013-09-24 11:33:00,
2013-09-24 06:38:00,73.3,72.4,29.88,ESE,112,0.0,0.0,97,0.00,,---,0.00,VWS V14.01,2013-09-24 11:38:00,
2013-09-24 06:43:00,73.3,72.4,29.88,ESE,112,0.0,0.0,97,0.00,,---,0.00,VWS V14.01,2013-09-24 11:43:00,
2013-09-24 06:48:00,73.3,72.4,29.88,ESE,112,0.0,0.0,97,0.00,,---,0.00,VWS V14.01,2013-09-24 11:48:00,
2013-09-24 06:54:00,73.3,72.4,29.88,SE,135,0.0,0.0,97,0.00,,---,0.00,VWS V14.01,2013-09-24 11:54:00,
2013-09-24 06:59:00,73.3,72.4,29.88,ESE,112,1.3,1.3,97,0.00,,---,0.00,VWS V14.01,2013-09-24 11:59:00,
2013-09-24 07:04:00,73.3,72.4,29.88,SE,135,0.0,0.0,97,0.00,,---,0.00,VWS V14.01,2013-09-24 12:04:00,
2013-09-24 07:09:00,73.7,72.8,29.88,SE,135,0.0,0.0,97,0.00,,---,0.00,VWS V14.01,2013-09-24 12:09:00,
2013-09-24 07:14:00,73.7,72.8,29.88,ESE,112,0.0,0.0,97,0.00,,---,0.00,VWS V14.01,2013-09-24 12:14:00,
2013-09-24 07:19:00,73.7,72.8,29.88,ESE,112,0.0,0.0,97,0.00,,---,0.00,VWS V14.01,2013-09-24 12:19:00,
2013-09-24 07:24:00,73.7,72.8,29.88,ESE,112,0.0,0.9,97,0.00,,---,0.00,VWS V14.01,2013-09-24 12:24:00,
2013-09-24 07:29:00,73.7,72.8,29.88,SSE,158,0.0,0.0,97,0.00,,---,0.00,VWS V14.01,2013-09-24 12:29:00,
2013-09-24 07:34:00,73.7,72.8,29.88,SSE,158,0.0,0.0,97,0.00,,---,0.00,VWS V14.01,2013-09-24 12:34:00,
2013-09-24 07:39:00,73.9,73.0,29.88,ESE,112,0.0,2.7,97,0.00,,---,0.00,VWS V14.01,2013-09-24 12:39:00,
2013-09-24 07:44:00,73.9,73.0,29.88,SSE,158,0.0,0.0,97,0.00,,---,0.00,VWS V14.01,2013-09-24 12:44:00,
2013-09-24 07:49:00,73.9,73.0,29.88,ESE,112,2.0,2.0,97,0.00,,---,0.00,VWS V14.01,2013-09-24 12:49:00,
2013-09-24 07:54:00,73.9,73.0,29.88,ESE,112,0.0,0.0,97,0.00,,---,0.00,VWS V14.01,2013-09-24 12:54:00,
2013-09-24 07:59:00,73.9,73.0,29.88,ESE,112,0.0,0.0,97,0.00,,---,0.00,VWS V14.01,2013-09-24 12:59:00,
2013-09-24 08:04:00,74.0,73.1,29.88,SSE,158,0.0,0.0,97,0.00,,---,0.00,VWS V14.01,2013-09-24 13:04:00,
2013-09-24 08:09:00,74.0,73.4,29.88,SSE,158,0.0,0.0,98,0.00,,---,0.00,VWS V14.01,2013-09-24 13:09:00,
2013-09-24 08:14:00,74.0,73.4,29.88,ESE,112,1.6,1.6,98,0.00,,---,0.00,VWS V14.01,2013-09-24 13:14:00,
2013-09-24 08:19:00,74.0,73.4,29.88,SE,135,2.2,2.5,98,0.00,,---,0.00,VWS V14.01,2013-09-24 13:19:00,
2013-09-24 08:24:00,74.2,73.6,29.88,SSE,158,0.0,0.0,98,0.00,,---,0.00,VWS V14.01,2013-09-24 13:24:00,
2013-09-24 08:29:00,74.2,73.6,29.88,ESE,112,0.0,1.3,98,0.00,,---,0.00,VWS V14.01,2013-09-24 13:29:00,
2013-09-24 08:34:00,74.2,73.6,29.88,East,90,0.0,0.0,98,0.00,,---,0.00,VWS V14.01,2013-09-24 13:34:00,
2013-09-24 08:39:00,74.2,73.6,29.88,SE,135,0.0,0.0,98,0.00,,---,0.00,VWS V14.01,2013-09-24 13:39:00,
2013-09-24 08:44:00,74.2,73.6,29.88,NE,45,0.0,0.0,98,0.00,,---,0.00,VWS V14.01,2013-09-24 13:44:00,
2013-09-24 08:49:00,74.4,73.5,29.88,ENE,68,0.0,0.0,97,0.00,,---,0.00,VWS V14.01,2013-09-24 13:49:00,
2013-09-24 08:54:00,74.4,73.5,29.88,ENE,68,0.0,1.3,97,0.00,,---,0.00,VWS V14.01,2013-09-24 13:54:00,
2013-09-24 08:59:00,74.4,73.5,29.88,NE,45,0.0,1.1,97,0.00,,---,0.00,VWS V14.01,2013-09-24 13:59:00,
2013-09-24 09:04:00,74.4,73.5,29.88,East,90,0.0,0.0,97,0.00,,---,0.00,VWS V14.01,2013-09-24 14:04:00,
2013-09-24 09:09:00,74.6,73.7,29.88,ESE,112,0.0,0.0,97,0.00,,---,0.00,VWS V14.01,2013-09-24 14:09:00,
2013-09-24 09:14:00,74.8,73.9,29.88,ESE,112,0.9,2.0,97,0.00,,---,0.00,VWS V14.01,2013-09-24 14:14:00,
2013-09-24 09:19:00,74.9,74.0,29.88,SE,135,3.1,3.1,97,0.00,,---,0.00,VWS V14.01,2013-09-24 14:19:00,
2013-09-24 09:24:00,75.1,74.2,29.88,NE,45,2.0,3.4,97,0.00,,---,0.00,VWS V14.01,2013-09-24 14:24:00,
2013-09-24 09:29:00,75.3,74.4,29.88,SE,135,1.6,2.0,97,0.00,,---,0.00,VWS V14.01,2013-09-24 14:29:00,
2013-09-24 09:34:00,75.5,74.6,29.88,SSE,158,0.0,3.8,97,0.00,,---,0.00,VWS V14.01,2013-09-24 14:34:00,
2013-09-24 09:39:00,75.7,74.8,29.88,SSE,158,0.0,0.9,97,0.00,,---,0.00,VWS V14.01,2013-09-24 14:39:00,
2013-09-24 09:44:00,75.8,74.9,29.88,SE,135,0.0,3.6,97,0.00,,---,0.00,VWS V14.01,2013-09-24 14:44:00,
2013-09-24 09:54:00,76.2,75.3,29.88,SSE,158,3.6,3.6,97,0.00,,---,0.00,VWS V14.01,2013-09-24 14:54:00,
2013-09-24 09:59:00,76.4,75.5,29.88,South,180,1.1,2.0,97,0.00,,---,0.00,VWS V14.01,2013-09-24 14:59:00,
2013-09-24 10:04:00,76.4,75.2,29.88,ENE,68,0.0,0.0,96,0.00,,---,0.00,VWS V14.01,2013-09-24 15:04:00,
2013-09-24 10:09:00,76.4,75.2,29.88,SSE,158,4.3,4.3,96,0.00,,---,0.00,VWS V14.01,2013-09-24 15:09:00,
2013-09-24 10:14:00,76.6,75.3,29.88,ESE,112,0.0,0.0,96,0.00,,---,0.00,VWS V14.01,2013-09-24 15:14:00,
2013-09-24 10:19:00,76.7,75.5,29.88,ESE,112,1.3,3.8,96,0.00,,---,0.00,VWS V14.01,2013-09-24 15:19:00,
2013-09-24 10:24:00,76.9,75.7,29.85,WNW,292,0.0,0.0,96,0.00,,---,0.00,VWS V14.01,2013-09-24 15:24:00,
2013-09-24 10:29:00,76.9,75.4,29.85,SE,135,1.1,1.3,95,0.00,,---,0.00,VWS V14.01,2013-09-24 15:29:00,
2013-09-24 10:34:00,76.7,75.2,29.85,ENE,68,0.0,2.0,95,0.00,,---,0.00,VWS V14.01,2013-09-24 15:34:00,
2013-09-24 10:39:00,76.7,75.2,29.85,SSE,158,2.0,2.0,95,0.00,,---,0.00,VWS V14.01,2013-09-24 15:39:00,
2013-09-24 10:44:00,76.7,75.2,29.85,SE,135,1.3,1.6,95,0.00,,---,0.00,VWS V14.01,2013-09-24 15:44:00,
2013-09-24 10:49:00,76.7,74.9,29.85,ESE,112,2.0,2.2,94,0.00,,---,0.00,VWS V14.01,2013-09-24 15:49:00,
2013-09-24 10:54:00,76.7,74.9,29.85,SE,135,0.0,1.3,94,0.00,,---,0.00,VWS V14.01,2013-09-24 15:54:00,
2013-09-24 10:59:00,76.7,74.9,29.85,SSE,158,2.7,2.7,94,0.00,,---,0.00,VWS V14.01,2013-09-24 15:59:00,
2013-09-24 11:04:00,76.7,74.9,29.85,SSE,158,0.0,2.7,94,0.00,,---,0.00,VWS V14.01,2013-09-24 16:04:00,
2013-09-24 11:09:00,76.6,74.7,29.85,SE,135,1.6,2.5,94,0.00,,---,0.00,VWS V14.01,2013-09-24 16:09:00,
2013-09-24 11:14:00,76.6,74.7,29.85,SSE,158,0.0,0.0,94,0.00,,---,0.00,VWS V14.01,2013-09-24 16:14:00,
2013-09-24 11:19:00,76.6,74.7,29.85,SSE,158,2.0,2.2,94,0.00,,---,0.00,VWS V14.01,2013-09-24 16:19:00,
2013-09-24 11:24:00,76.6,74.7,29.85,SSE,158,1.3,3.1,94,0.00,,---,0.00,VWS V14.01,2013-09-24 16:24:00,
2013-09-24 11:29:00,76.6,74.7,29.85,SSE,158,3.6,4.7,94,0.00,,---,0.00,VWS V14.01,2013-09-24 16:29:00,
2013-09-24 11:34:00,76.4,74.5,29.85,SSE,158,4.3,4.3,94,0.00,,---,0.00,VWS V14.01,2013-09-24 16:34:00,
2013-09-24 11:39:00,76.4,74.5,29.82,South,180,2.2,2.2,94,0.05,,---,0.05,VWS V14.01,2013-09-24 16:39:00,
2013-09-24 11:44:00,76.2,74.3,29.82,SSW,202,1.6,1.6,94,0.05,,---,0.05,VWS V14.01,2013-09-24 16:44:00,
2013-09-24 11:49:00,76.0,74.5,29.82,West,270,2.0,2.0,95,0.05,,---,0.05,VWS V14.01,2013-09-24 16:49:00,
2013-09-24 11:54:00,76.0,74.5,29.85,NW,315,2.2,2.5,95,0.05,,---,0.05,VWS V14.01,2013-09-24 16:54:00,
2013-09-24 11:59:00,76.0,74.8,29.85,WNW,292,5.8,5.8,96,0.09,,---,0.09,VWS V14.01,2013-09-24 16:59:00,
2013-09-24 12:04:00,74.6,71.8,29.85,WNW,292,5.8,7.6,91,0.29,,---,0.29,VWS V14.01,2013-09-24 17:04:00,
2013-09-24 12:09:00,73.7,70.9,29.88,WNW,292,2.5,3.1,91,0.79,,---,0.79,VWS V14.01,2013-09-24 17:09:00,
2013-09-24 12:14:00,73.1,70.7,29.88,WNW,292,2.0,2.5,92,1.04,,---,1.04,VWS V14.01,2013-09-24 17:14:00,
2013-09-24 12:19:00,72.8,70.6,29.88,NNW,338,3.1,3.1,93,1.42,,---,1.42,VWS V14.01,2013-09-24 17:19:00,
2013-09-24 12:24:00,72.4,70.6,29.88,WNW,292,3.1,3.1,94,1.79,,---,1.79,VWS V14.01,2013-09-24 17:24:00,
2013-09-24 12:29:00,72.2,70.7,29.88,NNW,338,2.7,2.7,95,2.04,,---,2.04,VWS V14.01,2013-09-24 17:29:00,
2013-09-24 12:34:00,72.1,70.9,29.88,North,0,0.0,0.0,96,2.21,,---,2.21,VWS V14.01,2013-09-24 17:34:00,
2013-09-24 12:39:00,72.1,70.9,29.85,NE,45,0.0,0.0,96,2.33,,---,2.38,VWS V14.01,2013-09-24 17:39:00,
2013-09-24 12:44:00,71.9,71.0,29.85,WSW,248,0.0,0.0,97,2.41,,---,2.46,VWS V14.01,2013-09-24 17:44:00,
2013-09-24 12:49:00,71.9,71.0,29.85,SW,225,0.0,0.0,97,2.45,,---,2.50,VWS V14.01,2013-09-24 17:49:00,
2013-09-24 12:54:00,71.9,71.0,29.85,SW,225,0.0,0.0,97,2.45,,---,2.50,VWS V14.01,2013-09-24 17:54:00,
2013-09-24 12:59:00,71.9,71.0,29.85,SW,225,0.0,0.0,97,2.41,,---,2.50,VWS V14.01,2013-09-24 17:59:00,
2013-09-24 13:04:00,71.9,71.0,29.85,SW,225,0.0,0.0,97,2.25,,---,2.50,VWS V14.01,2013-09-24 18:04:00,
2013-09-24 13:10:00,71.9,71.0,29.85,SW,225,0.0,0.0,97,1.71,,---,2.50,VWS V14.01,2013-09-24 18:10:00,
2013-09-24 13:15:00,72.1,71.2,29.85,SW,225,1.3,1.3,97,1.46,,---,2.50,VWS V14.01,2013-09-24 18:15:00,
2013-09-24 13:20:00,72.1,71.2,29.85,SW,225,0.0,0.0,97,1.08,,---,2.50,VWS V14.01,2013-09-24 18:20:00,
2013-09-24 13:25:00,72.1,71.5,29.85,SW,225,0.0,0.0,98,0.71,,---,2.50,VWS V14.01,2013-09-24 18:25:00,
2013-09-24 13:30:00,72.1,71.2,29.85,SW,225,0.0,0.0,97,0.50,,---,2.50,VWS V14.01,2013-09-24 18:30:00,
2013-09-24 13:35:00,72.1,71.5,29.85,SW,225,0.0,0.0,98,0.29,,---,2.50,VWS V14.01,2013-09-24 18:35:00,
2013-09-24 13:40:00,72.1,71.2,29.82,SW,225,0.0,0.0,97,0.12,,---,2.50,VWS V14.01,2013-09-24 18:40:00,
2013-09-24 13:45:00,72.1,71.5,29.82,WNW,292,0.0,0.0,98,0.04,,---,2.50,VWS V14.01,2013-09-24 18:45:00,
2013-09-24 13:50:00,72.1,71.5,29.82,WSW,248,0.0,0.0,98,0.00,,---,2.50,VWS V14.01,2013-09-24 18:50:00,
2013-09-24 13:55:00,72.1,71.5,29.85,WSW,248,0.0,0.0,98,0.00,,---,2.50,VWS V14.01,2013-09-24 18:55:00,
2013-09-24 14:00:00,72.1,71.5,29.85,WSW,248,1.6,2.2,98,0.04,,---,2.54,VWS V14.01,2013-09-24 19:00:00,
2013-09-24 14:05:00,72.1,71.5,29.85,SSW,202,0.0,0.0,98,0.04,,---,2.54,VWS V14.01,2013-09-24 19:05:00,
2013-09-24 14:10:00,71.9,71.3,29.85,SSE,158,0.0,0.0,98,0.04,,---,2.54,VWS V14.01,2013-09-24 19:10:00,
2013-09-24 14:15:00,71.9,71.3,29.85,South,180,0.0,0.0,98,0.04,,---,2.54,VWS V14.01,2013-09-24 19:15:00,
2013-09-24 14:20:00,71.9,71.3,29.85,ENE,68,0.0,0.0,98,0.04,,---,2.54,VWS V14.01,2013-09-24 19:20:00,
2013-09-24 14:25:00,71.9,71.3,29.85,ENE,68,0.0,0.0,98,0.04,,---,2.54,VWS V14.01,2013-09-24 19:25:00,
2013-09-24 14:30:00,71.9,71.3,29.85,NNE,22,0.0,0.0,98,0.04,,---,2.54,VWS V14.01,2013-09-24 19:30:00,
2013-09-24 14:35:00,71.9,71.3,29.85,NNW,338,0.0,0.0,98,0.04,,---,2.54,VWS V14.01,2013-09-24 19:35:00,
2013-09-24 14:40:00,71.9,71.3,29.82,NW,315,0.0,0.0,98,0.04,,---,2.54,VWS V14.01,2013-09-24 19:40:00,
2013-09-24 14:45:00,71.9,71.3,29.82,NW,315,0.0,0.0,98,0.04,,---,2.54,VWS V14.01,2013-09-24 19:45:00,
2013-09-24 14:50:00,72.1,71.5,29.82,NW,315,0.0,0.0,98,0.04,,---,2.54,VWS V14.01,2013-09-24 19:50:00,
2013-09-24 14:55:00,72.1,71.5,29.82,NW,315,0.0,0.0,98,0.04,,---,2.54,VWS V14.01,2013-09-24 19:55:00,
2013-09-24 15:00:00,72.2,71.7,29.82,NW,315,0.0,0.0,98,0.00,,---,2.54,VWS V14.01,2013-09-24 20:00:00,
2013-09-24 15:05:00,72.2,71.7,29.82,NE,45,0.0,0.0,98,0.00,,---,2.54,VWS V14.01,2013-09-24 20:05:00,
2013-09-24 15:10:00,72.4,71.8,29.82,NNW,338,0.0,0.0,98,0.00,,---,2.54,VWS V14.01,2013-09-24 20:10:00,
2013-09-24 15:15:00,72.6,72.0,29.82,NNW,338,0.0,0.0,98,0.00,,---,2.54,VWS V14.01,2013-09-24 20:15:00,
2013-09-24 15:20:00,72.6,72.0,29.82,NNW,338,0.0,0.0,98,0.00,,---,2.54,VWS V14.01,2013-09-24 20:20:00,
2013-09-24 15:25:00,72.8,72.2,29.82,NNW,338,0.0,0.0,98,0.00,,---,2.54,VWS V14.01,2013-09-24 20:25:00,
2013-09-24 15:30:00,73.0,72.4,29.82,NNW,338,0.0,0.0,98,0.00,,---,2.54,VWS V14.01,2013-09-24 20:30:00,
2013-09-24 15:35:00,73.1,72.6,29.82,NNW,338,0.0,0.0,98,0.00,,---,2.54,VWS V14.01,2013-09-24 20:35:00,
2013-09-24 15:40:00,73.3,72.7,29.82,NNW,338,0.0,0.0,98,0.00,,---,2.54,VWS V14.01,2013-09-24 20:40:00,
2013-09-24 15:45:00,73.5,72.9,29.82,NNW,338,0.0,0.0,98,0.00,,---,2.54,VWS V14.01,2013-09-24 20:45:00,
2013-09-24 15:50:00,73.5,72.9,29.82,NNE,22,0.0,0.0,98,0.00,,---,2.54,VWS V14.01,2013-09-24 20:50:00,
2013-09-24 15:55:00,73.5,72.9,29.82,NW,315,0.0,0.0,98,0.00,,---,2.54,VWS V14.01,2013-09-24 20:55:00,
2013-09-24 16:00:00,73.5,72.9,29.82,NW,315,0.0,0.0,98,0.00,,---,2.54,VWS V14.01,2013-09-24 21:00:00,
2013-09-24 16:05:00,73.7,73.1,29.82,NW,315,0.0,0.0,98,0.00,,---,2.54,VWS V14.01,2013-09-24 21:05:00,
2013-09-24 16:10:00,73.7,73.1,29.82,NW,315,0.0,0.0,98,0.00,,---,2.54,VWS V14.01,2013-09-24 21:10:00,
2013-09-24 16:15:00,73.7,73.1,29.82,NW,315,0.0,0.0,98,0.00,,---,2.54,VWS V14.01,2013-09-24 21:15:00,
2013-09-24 16:20:00,73.7,73.1,29.82,NW,315,0.0,0.0,98,0.00,,---,2.54,VWS V14.01,2013-09-24 21:20:00,
2013-09-24 16:25:00,73.7,73.1,29.82,NW,315,0.0,0.0,98,0.00,,---,2.54,VWS V14.01,2013-09-24 21:25:00,
2013-09-24 16:30:00,73.7,73.1,29.82,NW,315,0.0,0.0,98,0.00,,---,2.54,VWS V14.01,2013-09-24 21:30:00,
2013-09-24 16:35:00,73.7,73.1,29.82,NW,315,0.0,0.0,98,0.00,,---,2.54,VWS V14.01,2013-09-24 21:35:00,
2013-09-24 16:41:00,73.9,73.3,29.79,NW,315,0.0,0.0,98,0.00,,---,2.54,VWS V14.01,2013-09-24 21:41:00,
2013-09-24 16:46:00,73.9,73.3,29.79,NW,315,0.0,0.0,98,0.00,,---,2.54,VWS V14.01,2013-09-24 21:46:00,
2013-09-24 16:51:00,73.9,73.3,29.79,NW,315,0.0,0.0,98,0.00,,---,2.54,VWS V14.01,2013-09-24 21:51:00,
2013-09-24 16:56:00,73.9,73.3,29.79,NW,315,0.0,0.0,98,0.00,,---,2.54,VWS V14.01,2013-09-24 21:56:00,
2013-09-24 17:01:00,74.0,73.4,29.79,NW,315,0.0,0.0,98,0.00,,---,2.54,VWS V14.01,2013-09-24 22:01:00,
2013-09-24 17:06:00,74.0,73.4,29.79,NW,315,0.0,0.0,98,0.00,,---,2.54,VWS V14.01,2013-09-24 22:06:00,
2013-09-24 17:11:00,74.0,73.4,29.79,NW,315,0.0,0.0,98,0.00,,---,2.54,VWS V14.01,2013-09-24 22:11:00,
2013-09-24 17:16:00,74.0,73.4,29.79,NW,315,0.0,0.0,98,0.00,,---,2.54,VWS V14.01,2013-09-24 22:16:00,
2013-09-24 17:21:00,74.2,73.6,29.79,NW,315,0.0,0.0,98,0.00,,---,2.54,VWS V14.01,2013-09-24 22:21:00,
2013-09-24 17:26:00,74.2,73.6,29.79,NW,315,0.0,0.0,98,0.00,,---,2.54,VWS V14.01,2013-09-24 22:26:00,
2013-09-24 17:31:00,74.4,73.8,29.79,NW,315,0.0,0.0,98,0.00,,---,2.54,VWS V14.01,2013-09-24 22:31:00,
2013-09-24 17:36:00,74.4,73.5,29.79,NW,315,0.0,0.0,97,0.00,,---,2.54,VWS V14.01,2013-09-24 22:36:00,
2013-09-24 17:41:00,74.4,73.5,29.79,NW,315,0.0,0.0,97,0.00,,---,2.54,VWS V14.01,2013-09-24 22:41:00,
2013-09-24 17:46:00,74.4,73.5,29.79,NNW,338,0.0,1.1,97,0.00,,---,2.54,VWS V14.01,2013-09-24 22:46:00,
2013-09-24 17:51:00,74.6,73.7,29.79,NNW,338,0.0,0.0,97,0.00,,---,2.54,VWS V14.01,2013-09-24 22:51:00,
2013-09-24 17:56:00,74.6,73.7,29.79,NW,315,0.0,0.0,97,0.00,,---,2.54,VWS V14.01,2013-09-24 22:56:00,
2013-09-24 18:01:00,74.6,73.7,29.79,NW,315,0.0,0.0,97,0.00,,---,2.54,VWS V14.01,2013-09-24 23:01:00,
2013-09-24 18:06:00,74.6,73.7,29.79,NW,315,0.0,0.0,97,0.00,,---,2.54,VWS V14.01,2013-09-24 23:06:00,
2013-09-24 18:11:00,74.6,73.7,29.79,NW,315,0.0,0.0,97,0.00,,---,2.54,VWS V14.01,2013-09-24 23:11:00,
2013-09-24 18:16:00,74.4,73.5,29.79,NW,315,0.0,0.0,97,0.00,,---,2.54,VWS V14.01,2013-09-24 23:16:00,
2013-09-24 18:21:00,74.4,73.5,29.79,NW,315,0.0,0.0,97,0.00,,---,2.54,VWS V14.01,2013-09-24 23:21:00,
2013-09-24 18:26:00,74.2,73.6,29.82,NW,315,0.0,0.0,98,0.00,,---,2.54,VWS V14.01,2013-09-24 23:26:00,
2013-09-24 18:31:00,74.2,73.6,29.82,NW,315,0.0,0.0,98,0.00,,---,2.54,VWS V14.01,2013-09-24 23:31:00,
2013-09-24 18:36:00,74.2,73.6,29.82,SSW,202,0.0,0.0,98,0.00,,---,2.54,VWS V14.01,2013-09-24 23:36:00,
2013-09-24 18:41:00,74.2,73.6,29.79,SSW,202,0.0,0.0,98,0.00,,---,2.54,VWS V14.01,2013-09-24 23:41:00,
2013-09-24 18:46:00,74.0,73.4,29.79,SSW,202,0.0,0.0,98,0.00,,---,2.54,VWS V14.01,2013-09-24 23:46:00,
2013-09-24 18:51:00,74.0,73.4,29.79,SSW,202,0.0,0.0,98,0.00,,---,2.54,VWS V14.01,2013-09-24 23:51:00,
2013-09-24 18:56:00,73.9,73.3,29.82,SSW,202,0.0,0.0,98,0.00,,---,2.54,VWS V14.01,2013-09-24 23:56:00,
2013-09-24 19:01:00,73.9,73.3,29.82,SSW,202,0.0,0.0,98,0.00,,---,2.54,VWS V14.01,2013-09-25 00:01:00,
2013-09-24 19:06:00,73.9,73.3,29.82,SSW,202,0.0,0.0,98,0.00,,---,2.54,VWS V14.01,2013-09-25 00:06:00,
2013-09-24 19:11:00,73.9,73.3,29.82,SSW,202,0.0,0.0,98,0.00,,---,2.54,VWS V14.01,2013-09-25 00:11:00,
2013-09-24 19:17:00,73.7,73.1,29.82,SSW,202,0.0,0.0,98,0.00,,---,2.54,VWS V14.01,2013-09-25 00:17:00,
2013-09-24 19:22:00,73.7,73.1,29.82,SSW,202,0.0,0.0,98,0.00,,---,2.54,VWS V14.01,2013-09-25 00:22:00,
2013-09-24 19:27:00,73.5,72.9,29.82,SSW,202,0.0,0.0,98,0.00,,---,2.54,VWS V14.01,2013-09-25 00:27:00,
2013-09-24 19:32:00,73.5,72.9,29.82,SSW,202,0.0,0.0,98,0.00,,---,2.54,VWS V14.01,2013-09-25 00:32:00,
2013-09-24 19:37:00,73.5,72.9,29.82,SSW,202,0.0,0.0,98,0.00,,---,2.54,VWS V14.01,2013-09-25 00:37:00,
2013-09-24 19:42:00,73.5,72.9,29.82,SSW,202,0.0,0.0,98,0.00,,---,2.54,VWS V14.01,2013-09-25 00:42:00,
2013-09-24 19:47:00,73.5,72.9,29.82,SSW,202,0.0,0.0,98,0.00,,---,2.54,VWS V14.01,2013-09-25 00:47:00,
2013-09-24 19:52:00,73.5,72.9,29.82,SSW,202,0.0,0.0,98,0.00,,---,2.54,VWS V14.01,2013-09-25 00:52:00,
2013-09-24 19:56:00,73.3,72.7,29.82,SSW,202,0.0,0.0,98,0.00,,---,2.54,VWS V14.01,2013-09-25 00:56:00,
2013-09-24 20:01:00,73.3,72.7,29.82,SSW,202,0.0,0.0,98,0.00,,---,2.54,VWS V14.01,2013-09-25 01:01:00,
2013-09-24 20:06:00,73.3,72.7,29.82,SSW,202,0.0,0.0,98,0.00,,---,2.54,VWS V14.01,2013-09-25 01:06:00,
2013-09-24 20:11:00,73.3,72.7,29.82,SSW,202,0.0,0.0,98,0.00,,---,2.54,VWS V14.01,2013-09-25 01:11:00,
2013-09-24 20:16:00,73.3,72.7,29.82,SSW,202,0.0,0.0,98,0.00,,---,2.54,VWS V14.01,2013-09-25 01:16:00,
2013-09-24 20:21:00,73.1,72.6,29.82,SSW,202,0.0,0.0,98,0.00,,---,2.54,VWS V14.01,2013-09-25 01:21:00,
2013-09-24 20:26:00,73.1,72.6,29.82,SSW,202,0.0,0.0,98,0.00,,---,2.54,VWS V14.01,2013-09-25 01:26:00,
2013-09-24 20:31:00,73.1,72.6,29.82,SSW,202,0.0,0.0,98,0.00,,---,2.54,VWS V14.01,2013-09-25 01:31:00,
2013-09-24 20:36:00,73.1,72.6,29.82,SSW,202,0.0,0.0,98,0.00,,---,2.54,VWS V14.01,2013-09-25 01:36:00,
2013-09-24 20:41:00,73.1,72.6,29.82,SSW,202,0.0,0.0,98,0.00,,---,2.54,VWS V14.01,2013-09-25 01:41:00,
2013-09-24 20:46:00,73.1,72.6,29.82,SSW,202,0.0,0.0,98,0.00,,---,2.54,VWS V14.01,2013-09-25 01:46:00,
2013-09-24 20:51:00,73.1,72.6,29.82,SSW,202,0.0,0.0,98,0.00,,---,2.54,VWS V14.01,2013-09-25 01:51:00,
2013-09-24 20:56:00,73.1,72.6,29.82,SSW,202,0.0,0.0,98,0.00,,---,2.54,VWS V14.01,2013-09-25 01:56:00,
2013-09-24 21:01:00,73.1,72.6,29.82,SSW,202,0.0,0.0,98,0.00,,---,2.54,VWS V14.01,2013-09-25 02:01:00,
2013-09-24 21:06:00,73.1,72.6,29.82,SSW,202,0.0,0.0,98,0.00,,---,2.54,VWS V14.01,2013-09-25 02:06:00,
2013-09-24 21:11:00,73.1,72.6,29.82,SSW,202,0.0,0.0,98,0.00,,---,2.54,VWS V14.01,2013-09-25 02:11:00,
2013-09-24 21:16:00,73.1,72.6,29.82,SSW,202,0.0,0.0,98,0.00,,---,2.54,VWS V14.01,2013-09-25 02:16:00,
2013-09-24 21:21:00,73.0,72.4,29.82,SSW,202,0.0,0.0,98,0.00,,---,2.54,VWS V14.01,2013-09-25 02:21:00,
2013-09-24 21:26:00,73.0,72.4,29.82,SSW,202,0.0,0.0,98,0.00,,---,2.54,VWS V14.01,2013-09-25 02:26:00,
2013-09-24 21:31:00,73.0,72.4,29.82,SSW,202,0.0,0.0,98,0.00,,---,2.54,VWS V14.01,2013-09-25 02:31:00,
2013-09-24 21:36:00,73.0,72.4,29.82,SSW,202,0.0,0.0,98,0.00,,---,2.54,VWS V14.01,2013-09-25 02:36:00,
2013-09-24 21:41:00,72.8,72.2,29.82,SSW,202,0.0,0.0,98,0.00,,---,2.54,VWS V14.01,2013-09-25 02:41:00,
2013-09-24 21:46:00,72.8,72.2,29.82,SSW,202,0.0,0.0,98,0.00,,---,2.54,VWS V14.01,2013-09-25 02:46:00,
2013-09-24 21:51:00,72.8,72.2,29.82,SSW,202,0.0,0.0,98,0.00,,---,2.54,VWS V14.01,2013-09-25 02:51:00,
2013-09-24 21:56:00,72.8,72.2,29.82,SSW,202,0.0,0.0,98,0.00,,---,2.54,VWS V14.01,2013-09-25 02:56:00,
2013-09-24 22:01:00,72.8,72.2,29.82,SSW,202,0.0,0.0,98,0.00,,---,2.54,VWS V14.01,2013-09-25 03:01:00,
2013-09-24 22:06:00,72.8,72.2,29.82,SSW,202,0.0,0.0,98,0.00,,---,2.54,VWS V14.01,2013-09-25 03:06:00,
2013-09-24 22:11:00,72.8,72.2,29.82,SSW,202,0.0,0.0,98,0.00,,---,2.54,VWS V14.01,2013-09-25 03:11:00,
2013-09-24 22:16:00,72.8,72.2,29.82,SSW,202,0.0,0.0,98,0.00,,---,2.54,VWS V14.01,2013-09-25 03:16:00,
2013-09-24 22:21:00,72.8,72.2,29.82,SSW,202,0.0,0.0,98,0.00,,---,2.54,VWS V14.01,2013-09-25 03:21:00,
2013-09-24 22:26:00,72.8,72.2,29.82,SSW,202,0.0,0.0,98,0.00,,---,2.54,VWS V14.01,2013-09-25 03:26:00,
2013-09-24 22:31:00,72.8,72.2,29.82,SSW,202,0.0,0.0,98,0.00,,---,2.54,VWS V14.01,2013-09-25 03:31:00,
2013-09-24 22:36:00,72.8,72.2,29.82,SSW,202,0.0,0.0,98,0.00,,---,2.54,VWS V14.01,2013-09-25 03:36:00,
2013-09-24 22:41:00,72.8,72.2,29.82,SSW,202,0.0,0.0,98,0.00,,---,2.54,VWS V14.01,2013-09-25 03:41:00,
2013-09-24 22:46:00,72.8,72.2,29.82,SSW,202,0.0,0.0,98,0.00,,---,2.54,VWS V14.01,2013-09-25 03:46:00,
2013-09-24 22:51:00,72.8,72.2,29.82,SSW,202,0.0,0.0,98,0.00,,---,2.54,VWS V14.01,2013-09-25 03:51:00,
2013-09-24 22:56:00,72.8,72.2,29.82,SSW,202,0.0,0.0,98,0.00,,---,2.54,VWS V14.01,2013-09-25 03:56:00,
2013-09-24 23:01:00,72.8,72.2,29.82,SSW,202,0.0,0.0,98,0.00,,---,2.54,VWS V14.01,2013-09-25 04:01:00,
2013-09-24 23:03:00,72.8,72.2,29.82,SSW,202,0.0,0.0,98,0.00,,---,2.54,VWS V14.01,2013-09-25 04:03:00,
2013-09-24 23:08:00,72.8,72.2,29.82,SSW,202,0.0,0.0,98,0.00,,---,2.54,VWS V14.01,2013-09-25 04:08:00,
2013-09-24 23:13:00,72.6,72.0,29.82,SSW,202,0.0,0.0,98,0.00,,---,2.54,VWS V14.01,2013-09-25 04:13:00,
2013-09-24 23:18:00,72.8,72.2,29.82,SSW,202,0.0,0.0,98,0.00,,---,2.54,VWS V14.01,2013-09-25 04:18:00,
2013-09-24 23:23:00,72.8,72.2,29.82,SSW,202,0.0,0.0,98,0.00,,---,2.54,VWS V14.01,2013-09-25 04:23:00,
2013-09-24 23:28:00,72.8,72.2,29.82,SSW,202,0.0,0.0,98,0.00,,---,2.54,VWS V14.01,2013-09-25 04:28:00,
2013-09-24 23:33:00,72.6,72.0,29.82,SSW,202,0.0,0.0,98,0.00,,---,2.54,VWS V14.01,2013-09-25 04:33:00,
2013-09-24 23:38:00,72.6,72.0,29.82,SSW,202,0.0,0.0,98,0.00,,---,2.54,VWS V14.01,2013-09-25 04:38:00,
2013-09-24 23:43:00,72.6,72.0,29.82,SSW,202,0.0,0.0,98,0.00,,---,2.54,VWS V14.01,2013-09-25 04:43:00,
2013-09-24 23:48:00,72.6,72.0,29.82,SSW,202,0.0,0.0,98,0.00,,---,2.54,VWS V14.01,2013-09-25 04:48:00,
2013-09-24 23:53:00,72.6,72.0,29.82,SSW,202,0.0,0.0,98,0.00,,---,2.54,VWS V14.01,2013-09-25 04:53:00,
2013-09-24 23:58:00,72.6,72.0,29.82,SSW,202,0.0,0.0,98,0.00,,---,2.54,VWS V14.01,2013-09-25 04:58:00,